Time;durP1;ratioP1;P1;durP2;ratioP2;P2;SDS_P1;SDS_P2;PMS_P1;PMS_P2;Temp;Humidity;BMP_temperature;BMP_pressure;BME280_temperature;BME280_humidity;BME280_pressure;Samples;Min_cycle;Max_cycle;Signal;HPM_P1;HPM_P2
2022/08/16 00:00:32;;;;;;;4.72;4.30;;;;;;;;;;5036924;28;20033;-72
2022/08/16 00:02:59;;;;;;;8.68;4.75;;;;;;;;;;5035639;28;20048;-72
2022/08/16 00:05:26;;;;;;;6.80;4.45;;;;;;;;;;5034245;28;20049;-72
2022/08/16 00:07:52;;;;;;;7.28;4.70;;;;;;;;;;5035580;28;20530;-73
2022/08/16 00:10:19;;;;;;;5.00;4.38;;;;;;;;;;5034674;28;20099;-72
2022/08/16 00:12:46;;;;;;;9.68;4.95;;;;;;;;;;5034849;28;20041;-72
2022/08/16 00:15:14;;;;;;;8.82;4.45;;;;;;;;;;5035858;28;20056;-72
2022/08/16 00:17:40;;;;;;;6.50;4.47;;;;;;;;;;5036135;28;20195;-72
2022/08/16 00:20:08;;;;;;;5.75;4.30;;;;;;;;;;5035969;28;20037;-71
2022/08/16 00:22:36;;;;;;;4.40;4.00;;;;;;;;;;5035958;28;20033;-72
2022/08/16 00:25:02;;;;;;;7.13;4.63;;;;;;;;;;5036327;28;20099;-72
2022/08/16 00:27:28;;;;;;;6.10;4.43;;;;;;;;;;5036230;28;20038;-72
2022/08/16 00:29:54;;;;;;;6.00;4.38;;;;;;;;;;5035623;28;20514;-72
2022/08/16 00:32:21;;;;;;;5.47;4.72;;;;;;;;;;5035437;28;20029;-72
2022/08/16 00:34:47;;;;;;;5.55;4.28;;;;;;;;;;5035448;28;20103;-72
2022/08/16 00:37:14;;;;;;;4.72;4.30;;;;;;;;;;5035548;28;20037;-72
2022/08/16 00:39:40;;;;;;;6.35;4.40;;;;;;;;;;5035433;28;20045;-72
2022/08/16 00:42:06;;;;;;;5.50;4.05;;;;;;;;;;5035313;28;20075;-72
2022/08/16 00:44:33;;;;;;;5.22;4.38;;;;;;;;;;5035599;28;20107;-73
2022/08/16 00:47:07;;;;;;;6.63;4.22;;;;;;;;;;5035693;28;20041;-73
2022/08/16 00:49:34;;;;;;;6.97;4.88;;;;;;;;;;5035477;28;20570;-74
2022/08/16 00:52:00;;;;;;;6.22;4.15;;;;;;;;;;5034991;28;20510;-73
2022/08/16 00:54:27;;;;;;;8.18;4.65;;;;;;;;;;5035039;28;20499;-74
2022/08/16 00:56:54;;;;;;;7.63;4.85;;;;;;;;;;5035217;28;20125;-74
2022/08/16 00:59:21;;;;;;;9.27;4.63;;;;;;;;;;5035312;28;20048;-73
2022/08/16 01:01:48;;;;;;;6.20;4.50;;;;;;;;;;5035264;28;20116;-74
2022/08/16 01:04:16;;;;;;;10.35;4.95;;;;;;;;;;5035573;28;20136;-73
2022/08/16 01:06:42;;;;;;;6.38;4.30;;;;;;;;;;5033985;28;20071;-74
2022/08/16 01:09:09;;;;;;;6.32;4.38;;;;;;;;;;5034884;28;20042;-74
2022/08/16 01:11:37;;;;;;;6.25;4.40;;;;;;;;;;5034985;28;20040;-73
2022/08/16 01:14:06;;;;;;;5.28;4.40;;;;;;;;;;5035216;28;20041;-73
2022/08/16 01:16:33;;;;;;;5.80;4.47;;;;;;;;;;5035029;28;20076;-74
2022/08/16 01:19:16;;;;;;;7.28;4.68;;;;;;;;;;5034979;28;20037;-73
2022/08/16 01:21:42;;;;;;;7.05;4.65;;;;;;;;;;5035041;28;20148;-74
2022/08/16 01:24:29;;;;;;;5.47;4.55;;;;;;;;;;5035167;28;20037;-73
2022/08/16 01:26:57;;;;;;;9.15;4.60;;;;;;;;;;5034659;28;20542;-73
2022/08/16 01:29:27;;;;;;;5.07;4.45;;;;;;;;;;5034561;28;20037;-74
2022/08/16 01:31:53;;;;;;;9.35;4.60;;;;;;;;;;5034801;28;20045;-74
2022/08/16 01:34:19;;;;;;;8.38;4.75;;;;;;;;;;5034869;28;20041;-73
2022/08/16 01:36:46;;;;;;;7.13;4.82;;;;;;;;;;5034059;28;20441;-73
2022/08/16 01:39:15;;;;;;;6.57;5.03;;;;;;;;;;5035040;28;20037;-74
2022/08/16 01:41:41;;;;;;;6.22;4.60;;;;;;;;;;5034571;28;20522;-74
2022/08/16 01:44:08;;;;;;;6.57;4.93;;;;;;;;;;5034635;28;20056;-74
2022/08/16 01:46:45;;;;;;;5.75;5.00;;;;;;;;;;5034786;28;20041;-74
2022/08/16 01:49:13;;;;;;;6.80;4.43;;;;;;;;;;5034560;28;20063;-74
2022/08/16 01:51:42;;;;;;;7.55;5.47;;;;;;;;;;5034388;28;20041;-73
2022/08/16 01:54:08;;;;;;;5.40;4.75;;;;;;;;;;5034208;28;20136;-74
2022/08/16 01:56:35;;;;;;;8.35;5.13;;;;;;;;;;5034765;28;20103;-74
2022/08/16 01:59:03;;;;;;;6.35;4.65;;;;;;;;;;5035020;28;20075;-73
2022/08/16 02:01:30;;;;;;;6.13;4.85;;;;;;;;;;5034189;28;20120;-73
2022/08/16 02:03:57;;;;;;;5.43;4.70;;;;;;;;;;5034123;28;20418;-74
2022/08/16 02:06:24;;;;;;;7.25;4.57;;;;;;;;;;5034217;28;20060;-74
2022/08/16 02:08:53;;;;;;;5.65;4.45;;;;;;;;;;5034306;28;20143;-74
2022/08/16 02:11:19;;;;;;;6.32;4.65;;;;;;;;;;5034420;28;20037;-74
2022/08/16 02:13:46;;;;;;;5.78;5.10;;;;;;;;;;5034449;28;20037;-74
2022/08/16 02:16:12;;;;;;;7.75;4.82;;;;;;;;;;5034087;28;20553;-74
2022/08/16 02:18:39;;;;;;;5.63;4.90;;;;;;;;;;5036357;28;20179;-73
2022/08/16 02:21:05;;;;;;;7.55;4.70;;;;;;;;;;5038127;28;20049;-74
2022/08/16 02:23:33;;;;;;;6.00;4.72;;;;;;;;;;5037975;28;20112;-74
2022/08/16 02:25:59;;;;;;;5.25;4.75;;;;;;;;;;5038034;28;20423;-74
2022/08/16 02:28:25;;;;;;;5.38;4.88;;;;;;;;;;5038145;28;20033;-74
2022/08/16 02:30:52;;;;;;;5.65;4.70;;;;;;;;;;5038213;28;20064;-74
2022/08/16 02:33:20;;;;;;;7.68;5.25;;;;;;;;;;5038084;28;20048;-73
2022/08/16 02:35:46;;;;;;;5.50;4.82;;;;;;;;;;5037456;28;20104;-74
2022/08/16 02:38:12;;;;;;;6.40;4.95;;;;;;;;;;5038140;28;20042;-74
2022/08/16 02:40:39;;;;;;;5.85;4.85;;;;;;;;;;5038087;28;20484;-74
2022/08/16 02:43:05;;;;;;;5.90;5.10;;;;;;;;;;5037540;28;20033;-74
2022/08/16 02:45:32;;;;;;;8.07;5.15;;;;;;;;;;5037840;28;20053;-73
2022/08/16 02:47:58;;;;;;;6.40;5.05;;;;;;;;;;5037851;28;20176;-74
2022/08/16 02:50:25;;;;;;;5.15;4.75;;;;;;;;;;5037588;28;20071;-74
2022/08/16 02:52:51;;;;;;;6.05;4.88;;;;;;;;;;5037987;28;20042;-74
2022/08/16 02:55:18;;;;;;;6.28;5.18;;;;;;;;;;5037622;28;20053;-74
2022/08/16 02:57:44;;;;;;;5.35;4.85;;;;;;;;;;5038192;28;20123;-74
2022/08/16 03:00:12;;;;;;;5.22;4.72;;;;;;;;;;5037438;28;20037;-74
2022/08/16 03:02:39;;;;;;;7.90;5.05;;;;;;;;;;5038265;28;20082;-74
2022/08/16 03:05:06;;;;;;;5.30;4.55;;;;;;;;;;5037831;28;20554;-74
2022/08/16 03:07:32;;;;;;;5.68;4.50;;;;;;;;;;5037875;28;20053;-74
2022/08/16 03:09:58;;;;;;;7.43;5.15;;;;;;;;;;5037770;28;20120;-74
2022/08/16 03:12:25;;;;;;;5.40;4.80;;;;;;;;;;5037368;28;20511;-74
2022/08/16 03:14:51;;;;;;;5.40;4.88;;;;;;;;;;5036949;28;20046;-74
2022/08/16 03:17:17;;;;;;;6.78;4.95;;;;;;;;;;5037294;28;20491;-73
2022/08/16 03:19:44;;;;;;;5.43;4.93;;;;;;;;;;5037251;28;20064;-74
2022/08/16 03:22:10;;;;;;;8.32;5.40;;;;;;;;;;5037317;28;20124;-74
2022/08/16 03:24:36;;;;;;;6.00;5.38;;;;;;;;;;5037448;28;20560;-74
2022/08/16 03:27:03;;;;;;;6.07;4.70;;;;;;;;;;5037516;28;20073;-73
2022/08/16 03:29:31;;;;;;;7.75;4.97;;;;;;;;;;5036342;28;20041;-73
2022/08/16 03:32:01;;;;;;;5.60;5.10;;;;;;;;;;5037222;28;20120;-73
2022/08/16 03:34:27;;;;;;;6.75;5.50;;;;;;;;;;5037230;28;20045;-73
2022/08/16 03:36:54;;;;;;;9.10;4.80;;;;;;;;;;5037130;28;20045;-73
2022/08/16 03:39:20;;;;;;;5.70;4.97;;;;;;;;;;5037188;28;20037;-73
2022/08/16 03:41:46;;;;;;;7.40;5.20;;;;;;;;;;5037182;28;20042;-73
2022/08/16 03:44:12;;;;;;;7.65;5.00;;;;;;;;;;5037653;28;20045;-73
2022/08/16 03:46:39;;;;;;;6.93;4.90;;;;;;;;;;5037255;28;20045;-73
2022/08/16 03:49:07;;;;;;;5.93;5.40;;;;;;;;;;5036983;28;20048;-73
2022/08/16 03:51:34;;;;;;;7.07;5.50;;;;;;;;;;5036670;28;20092;-73
2022/08/16 03:54:00;;;;;;;7.32;5.10;;;;;;;;;;5037393;28;20033;-73
2022/08/16 03:56:26;;;;;;;5.38;4.88;;;;;;;;;;5037156;28;20487;-73
2022/08/16 03:58:55;;;;;;;8.90;5.25;;;;;;;;;;5036822;28;20044;-73
2022/08/16 04:01:21;;;;;;;6.60;4.90;;;;;;;;;;5036558;28;20037;-73
2022/08/16 04:03:48;;;;;;;6.28;4.82;;;;;;;;;;5036700;28;20043;-73
2022/08/16 04:06:15;;;;;;;8.63;5.53;;;;;;;;;;5036590;28;20096;-73
2022/08/16 04:08:41;;;;;;;7.78;5.05;;;;;;;;;;5036633;28;20052;-73
2022/08/16 04:11:07;;;;;;;6.38;5.40;;;;;;;;;;5036858;28;20505;-73
2022/08/16 04:13:33;;;;;;;13.98;5.30;;;;;;;;;;5036225;28;20063;-73
2022/08/16 04:16:01;;;;;;;7.95;5.20;;;;;;;;;;5036622;28;20050;-73
2022/08/16 04:18:27;;;;;;;7.38;6.00;;;;;;;;;;5036691;28;20033;-73
2022/08/16 04:20:53;;;;;;;8.05;5.43;;;;;;;;;;5036233;28;20045;-73
2022/08/16 04:23:20;;;;;;;7.18;5.35;;;;;;;;;;5036345;28;20084;-73
2022/08/16 04:25:46;;;;;;;6.18;5.10;;;;;;;;;;5036726;28;20049;-73
2022/08/16 04:28:12;;;;;;;5.95;5.35;;;;;;;;;;5036246;28;20045;-73
2022/08/16 04:30:38;;;;;;;5.88;5.32;;;;;;;;;;5036198;28;20037;-73
2022/08/16 04:33:05;;;;;;;7.05;4.88;;;;;;;;;;5036719;28;20095;-73
2022/08/16 04:35:31;;;;;;;9.45;5.30;;;;;;;;;;5036154;28;20053;-73
2022/08/16 04:37:57;;;;;;;8.38;5.57;;;;;;;;;;5036144;28;20114;-73
2022/08/16 04:40:24;;;;;;;5.70;5.15;;;;;;;;;;5035640;28;20526;-73
2022/08/16 04:42:50;;;;;;;12.07;5.75;;;;;;;;;;5035677;28;20091;-73
2022/08/16 04:45:17;;;;;;;10.40;5.57;;;;;;;;;;5036164;28;20049;-73
2022/08/16 04:47:44;;;;;;;6.15;5.07;;;;;;;;;;5035887;28;20113;-73
2022/08/16 04:50:15;;;;;;;8.50;5.28;;;;;;;;;;5035656;28;20045;-73
2022/08/16 04:52:44;;;;;;;7.53;5.18;;;;;;;;;;5036355;28;20029;-73
2022/08/16 04:55:13;;;;;;;6.90;5.28;;;;;;;;;;5035291;28;20055;-73
2022/08/16 04:57:39;;;;;;;9.82;5.43;;;;;;;;;;5035582;28;20067;-73
2022/08/16 05:00:08;;;;;;;6.80;5.22;;;;;;;;;;5035603;28;20513;-73
2022/08/16 05:02:34;;;;;;;6.53;5.75;;;;;;;;;;5035879;28;20067;-73
2022/08/16 05:05:00;;;;;;;6.50;5.30;;;;;;;;;;5035971;28;20539;-73
2022/08/16 05:07:27;;;;;;;6.55;5.25;;;;;;;;;;5035624;28;20498;-73
2022/08/16 05:09:53;;;;;;;8.75;5.35;;;;;;;;;;5035193;28;20137;-73
2022/08/16 05:12:19;;;;;;;9.40;5.63;;;;;;;;;;5035404;28;20048;-73
2022/08/16 05:14:45;;;;;;;8.05;5.50;;;;;;;;;;5035003;28;20140;-73
2022/08/16 05:17:11;;;;;;;8.95;5.57;;;;;;;;;;5035124;28;20099;-73
2022/08/16 05:19:37;;;;;;;6.70;5.32;;;;;;;;;;5035874;28;20535;-73
2022/08/16 05:22:04;;;;;;;6.78;5.95;;;;;;;;;;5035146;28;20041;-73
2022/08/16 05:24:30;;;;;;;10.82;5.80;;;;;;;;;;5034574;28;20519;-73
2022/08/16 05:26:56;;;;;;;10.25;5.50;;;;;;;;;;5032048;28;20052;-73
2022/08/16 05:29:22;;;;;;;5.40;4.93;;;;;;;;;;5034760;28;20038;-73
2022/08/16 05:31:48;;;;;;;5.65;5.07;;;;;;;;;;5033900;28;20052;-73
2022/08/16 05:34:15;;;;;;;8.80;5.70;;;;;;;;;;5034971;28;20068;-72
2022/08/16 05:36:41;;;;;;;9.65;6.07;;;;;;;;;;5034712;28;20483;-74
2022/08/16 05:39:08;;;;;;;6.25;5.13;;;;;;;;;;5034713;28;20479;-73
2022/08/16 05:41:34;;;;;;;8.82;5.28;;;;;;;;;;5034187;28;20120;-73
2022/08/16 05:44:00;;;;;;;6.57;5.07;;;;;;;;;;5032284;28;20061;-73
2022/08/16 05:46:26;;;;;;;7.35;5.05;;;;;;;;;;5032066;28;20499;-73
2022/08/16 05:48:53;;;;;;;8.07;5.30;;;;;;;;;;5032577;28;20049;-73
2022/08/16 05:51:19;;;;;;;6.82;5.32;;;;;;;;;;5014061;28;20127;-73
2022/08/16 05:53:45;;;;;;;5.25;4.65;;;;;;;;;;5013167;28;20531;-73
2022/08/16 05:56:11;;;;;;;5.88;4.32;;;;;;;;;;5014517;28;20100;-73
2022/08/16 05:58:37;;;;;;;5.57;4.35;;;;;;;;;;5014757;28;20132;-73
2022/08/16 06:01:04;;;;;;;5.70;4.30;;;;;;;;;;5014396;28;20037;-73
2022/08/16 06:03:31;;;;;;;5.70;4.63;;;;;;;;;;5014688;28;20041;-73
2022/08/16 06:05:58;;;;;;;4.72;3.90;;;;;;;;;;5016417;28;20530;-72
2022/08/16 06:08:24;;;;;;;7.20;4.25;;;;;;;;;;5034582;28;20047;-74
2022/08/16 06:10:50;;;;;;;6.78;4.45;;;;;;;;;;5035035;28;20463;-73
2022/08/16 06:13:16;;;;;;;5.30;4.25;;;;;;;;;;5034394;28;20045;-76
2022/08/16 06:15:42;;;;;;;5.38;4.25;;;;;;;;;;5034710;28;20050;-73
2022/08/16 06:18:08;;;;;;;8.60;5.28;;;;;;;;;;5034049;28;20034;-74
2022/08/16 06:20:34;;;;;;;8.20;7.03;;;;;;;;;;5034448;28;20045;-76
2022/08/16 06:23:01;;;;;;;8.50;4.40;;;;;;;;;;5035110;28;20463;-73
2022/08/16 06:25:27;;;;;;;6.35;4.00;;;;;;;;;;5034585;28;20123;-73
2022/08/16 06:27:54;;;;;;;4.30;3.90;;;;;;;;;;5035062;28;20042;-73
2022/08/16 06:30:20;;;;;;;5.68;4.15;;;;;;;;;;5034494;28;20041;-73
2022/08/16 06:32:46;;;;;;;6.68;4.25;;;;;;;;;;5034652;28;20117;-73
2022/08/16 06:35:14;;;;;;;5.18;4.40;;;;;;;;;;5033132;28;20057;-73
2022/08/16 06:37:41;;;;;;;5.07;4.03;;;;;;;;;;5034612;28;20037;-73
2022/08/16 06:40:08;;;;;;;6.15;4.00;;;;;;;;;;5034083;28;20076;-73
2022/08/16 06:42:34;;;;;;;9.43;4.10;;;;;;;;;;5034928;28;20507;-74
2022/08/16 06:45:00;;;;;;;5.75;4.25;;;;;;;;;;5033948;28;20577;-73
2022/08/16 06:47:26;;;;;;;9.23;4.15;;;;;;;;;;5033568;28;20034;-73
2022/08/16 06:49:52;;;;;;;6.60;3.85;;;;;;;;;;5033258;28;20041;-73
2022/08/16 06:52:19;;;;;;;6.82;4.00;;;;;;;;;;5034253;28;20065;-73
2022/08/16 06:54:45;;;;;;;5.20;3.55;;;;;;;;;;5034039;28;20057;-73
2022/08/16 06:57:12;;;;;;;7.00;3.67;;;;;;;;;;5034272;28;20045;-73
2022/08/16 06:59:38;;;;;;;6.00;4.18;;;;;;;;;;5034457;28;20045;-73
2022/08/16 07:02:05;;;;;;;5.05;4.25;;;;;;;;;;5032910;28;20045;-73
2022/08/16 07:04:31;;;;;;;7.20;3.95;;;;;;;;;;5033827;28;20511;-73
2022/08/16 07:06:57;;;;;;;4.20;3.58;;;;;;;;;;5037526;28;20069;-74
2022/08/16 07:09:23;;;;;;;5.93;4.20;;;;;;;;;;5036626;28;20040;-73
2022/08/16 07:11:49;;;;;;;11.18;3.88;;;;;;;;;;5037436;28;20059;-73
2022/08/16 07:14:16;;;;;;;4.72;4.13;;;;;;;;;;5036520;28;20499;-74
2022/08/16 07:16:42;;;;;;;8.40;3.90;;;;;;;;;;5036928;28;20120;-74
2022/08/16 07:19:08;;;;;;;6.07;4.22;;;;;;;;;;5037545;28;20044;-74
2022/08/16 07:21:40;;;;;;;5.30;4.00;;;;;;;;;;5036448;28;20048;-72
2022/08/16 07:24:06;;;;;;;8.23;4.32;;;;;;;;;;5035999;28;20038;-73
2022/08/16 07:26:32;;;;;;;5.15;4.20;;;;;;;;;;5024333;28;20488;-73
2022/08/16 07:28:59;;;;;;;7.72;4.68;;;;;;;;;;5032721;28;20522;-74
2022/08/16 07:31:26;;;;;;;6.88;4.93;;;;;;;;;;5036257;28;20548;-74
2022/08/16 07:33:52;;;;;;;38.40;5.78;;;;;;;;;;5036426;28;20045;-73
2022/08/16 07:36:19;;;;;;;4.22;3.83;;;;;;;;;;5036307;28;20034;-72
2022/08/16 07:38:45;;;;;;;10.40;5.30;;;;;;;;;;5037030;28;20052;-74
2022/08/16 07:41:11;;;;;;;10.63;4.20;;;;;;;;;;5036750;28;20042;-74
2022/08/16 07:43:37;;;;;;;6.60;3.97;;;;;;;;;;5037612;28;20033;-73
2022/08/16 07:46:04;;;;;;;8.63;4.43;;;;;;;;;;5036507;28;20091;-73
2022/08/16 07:48:30;;;;;;;10.20;4.60;;;;;;;;;;5036909;28;20060;-74
2022/08/16 07:50:56;;;;;;;6.03;4.32;;;;;;;;;;5036446;28;20116;-74
2022/08/16 07:53:22;;;;;;;6.65;4.53;;;;;;;;;;5036649;28;20072;-74
2022/08/16 07:55:48;;;;;;;9.40;4.95;;;;;;;;;;5037203;28;20053;-74
2022/08/16 07:58:16;;;;;;;7.07;4.60;;;;;;;;;;5036511;28;20061;-74
2022/08/16 08:00:42;;;;;;;6.65;4.32;;;;;;;;;;5036505;28;20124;-73
2022/08/16 08:03:08;;;;;;;6.13;4.15;;;;;;;;;;5036756;28;20041;-73
2022/08/16 08:05:34;;;;;;;8.23;4.55;;;;;;;;;;5036591;28;20068;-74
2022/08/16 08:08:00;;;;;;;5.10;4.60;;;;;;;;;;5036327;28;20120;-73
2022/08/16 08:10:27;;;;;;;4.95;4.13;;;;;;;;;;5036220;28;20042;-73
2022/08/16 08:12:53;;;;;;;5.90;4.70;;;;;;;;;;5036695;28;20433;-73
2022/08/16 08:15:20;;;;;;;5.13;3.67;;;;;;;;;;5036281;28;20084;-73
2022/08/16 08:17:47;;;;;;;7.18;4.50;;;;;;;;;;5036676;28;20041;-73
2022/08/16 08:20:15;;;;;;;4.25;3.65;;;;;;;;;;5035880;28;20087;-73
2022/08/16 08:22:41;;;;;;;5.68;4.35;;;;;;;;;;5035795;28;20069;-73
2022/08/16 08:25:08;;;;;;;6.15;3.90;;;;;;;;;;5036340;28;20052;-73
2022/08/16 08:27:34;;;;;;;5.72;3.70;;;;;;;;;;5035657;28;20041;-73
2022/08/16 08:30:00;;;;;;;4.18;3.75;;;;;;;;;;5036177;28;20034;-73
2022/08/16 08:32:27;;;;;;;6.43;3.88;;;;;;;;;;5035614;28;20041;-73
2022/08/16 08:34:53;;;;;;;7.65;3.88;;;;;;;;;;5036108;28;20077;-73
2022/08/16 08:37:21;;;;;;;4.22;3.22;;;;;;;;;;5035759;28;20074;-73
2022/08/16 08:39:47;;;;;;;6.18;3.58;;;;;;;;;;5035675;28;20061;-73
2022/08/16 08:42:14;;;;;;;7.43;3.33;;;;;;;;;;5035701;28;20045;-73
2022/08/16 08:44:40;;;;;;;3.78;3.45;;;;;;;;;;5035289;28;20038;-73
2022/08/16 08:47:07;;;;;;;6.82;3.63;;;;;;;;;;5035700;28;20484;-73
2022/08/16 08:49:33;;;;;;;6.95;3.47;;;;;;;;;;5035531;28;20045;-73
2022/08/16 08:51:59;;;;;;;6.28;3.60;;;;;;;;;;5036113;28;20044;-73
2022/08/16 08:54:26;;;;;;;6.32;3.42;;;;;;;;;;5035359;28;20053;-73
2022/08/16 08:56:52;;;;;;;3.20;2.88;;;;;;;;;;5035281;28;20488;-74
2022/08/16 08:59:18;;;;;;;4.20;3.10;;;;;;;;;;5035343;28;20587;-73
2022/08/16 09:01:46;;;;;;;6.25;3.22;;;;;;;;;;5035027;28;20041;-73
2022/08/16 09:04:13;;;;;;;5.13;3.42;;;;;;;;;;5035230;28;20041;-73
2022/08/16 09:06:40;;;;;;;6.82;3.25;;;;;;;;;;5034960;28;20089;-73
2022/08/16 09:09:08;;;;;;;3.90;3.22;;;;;;;;;;5035531;28;20488;-73
2022/08/16 09:11:34;;;;;;;6.15;3.30;;;;;;;;;;5035174;28;20045;-73
2022/08/16 09:14:00;;;;;;;5.18;3.17;;;;;;;;;;5035899;28;20037;-73
2022/08/16 09:16:26;;;;;;;3.40;3.10;;;;;;;;;;5035617;28;20041;-73
2022/08/16 09:18:54;;;;;;;6.82;3.40;;;;;;;;;;5035332;28;20044;-73
2022/08/16 09:21:21;;;;;;;3.75;3.25;;;;;;;;;;5035900;28;20041;-73
2022/08/16 09:23:47;;;;;;;3.72;3.05;;;;;;;;;;5035236;28;20040;-73
2022/08/16 09:26:17;;;;;;;6.00;3.50;;;;;;;;;;5035652;28;20045;-73
2022/08/16 09:28:44;;;;;;;7.20;3.42;;;;;;;;;;5034512;28;20041;-73
2022/08/16 09:31:11;;;;;;;4.80;3.30;;;;;;;;;;5035046;28;20033;-73
2022/08/16 09:33:37;;;;;;;5.55;3.42;;;;;;;;;;5034842;28;20042;-74
2022/08/16 09:36:04;;;;;;;5.22;3.42;;;;;;;;;;5034622;28;20563;-73
2022/08/16 09:38:30;;;;;;;4.63;3.30;;;;;;;;;;5034677;28;20488;-73
2022/08/16 09:40:57;;;;;;;6.70;2.97;;;;;;;;;;5034966;28;20065;-73
2022/08/16 09:43:24;;;;;;;7.30;3.65;;;;;;;;;;5035244;28;20099;-73
2022/08/16 09:45:50;;;;;;;5.45;3.42;;;;;;;;;;5035367;28;20151;-73
2022/08/16 09:48:17;;;;;;;4.03;3.40;;;;;;;;;;5034905;28;20042;-73
2022/08/16 09:50:44;;;;;;;5.78;3.53;;;;;;;;;;5034649;28;20041;-73
2022/08/16 09:53:12;;;;;;;3.97;3.28;;;;;;;;;;5034835;28;20041;-73
2022/08/16 09:55:39;;;;;;;4.72;3.83;;;;;;;;;;5035009;28;20132;-73
2022/08/16 09:58:05;;;;;;;6.55;4.22;;;;;;;;;;5034452;28;20485;-73
2022/08/16 10:00:32;;;;;;;5.63;3.80;;;;;;;;;;5034478;28;20124;-73
2022/08/16 10:02:58;;;;;;;6.30;3.67;;;;;;;;;;5034795;28;20041;-73
2022/08/16 10:05:25;;;;;;;5.72;4.07;;;;;;;;;;5033666;28;20053;-73
2022/08/16 10:07:51;;;;;;;8.73;3.75;;;;;;;;;;5033795;28;20068;-73
2022/08/16 10:10:19;;;;;;;5.95;3.67;;;;;;;;;;5034004;28;20064;-73
2022/08/16 10:15:30;;;;;;;5.15;3.50;;;;;;;;;;5033779;28;20573;-73
2022/08/16 10:17:57;;;;;;;4.28;3.85;;;;;;;;;;5034253;28;20040;-74
2022/08/16 10:20:24;;;;;;;5.03;3.90;;;;;;;;;;5033794;28;20080;-73
2022/08/16 10:22:51;;;;;;;6.78;3.58;;;;;;;;;;5034005;28;20142;-73
2022/08/16 10:25:18;;;;;;;7.53;3.60;;;;;;;;;;5034613;28;20046;-73
2022/08/16 10:27:45;;;;;;;9.15;3.92;;;;;;;;;;5034231;28;20073;-73
2022/08/16 10:30:12;;;;;;;5.10;3.60;;;;;;;;;;5034095;28;20030;-73
2022/08/16 10:32:38;;;;;;;9.65;5.43;;;;;;;;;;5034231;28;20045;-74
2022/08/16 10:35:04;;;;;;;6.22;4.13;;;;;;;;;;5033844;28;20128;-73
2022/08/16 10:37:30;;;;;;;8.30;3.72;;;;;;;;;;5034152;28;20045;-73
2022/08/16 10:39:57;;;;;;;5.35;4.20;;;;;;;;;;5031965;28;20073;-73
2022/08/16 10:42:23;;;;;;;7.32;4.05;;;;;;;;;;5026350;28;20041;-74
2022/08/16 10:44:49;;;;;;;5.40;3.80;;;;;;;;;;5017897;28;20052;-73
2022/08/16 10:47:15;;;;;;;5.40;3.88;;;;;;;;;;5018125;28;20072;-73
2022/08/16 10:49:42;;;;;;;5.93;4.45;;;;;;;;;;5018081;28;20033;-74
2022/08/16 10:52:08;;;;;;;6.75;4.38;;;;;;;;;;5017595;28;20038;-71
2022/08/16 10:54:34;;;;;;;9.88;4.85;;;;;;;;;;5018197;28;20081;-74
2022/08/16 10:57:01;;;;;;;4.25;3.55;;;;;;;;;;5018101;28;20049;-74
2022/08/16 10:59:31;;;;;;;6.88;3.97;;;;;;;;;;5018111;28;20503;-75
2022/08/16 11:01:58;;;;;;;7.22;3.97;;;;;;;;;;5017456;28;20087;-74
2022/08/16 11:04:25;;;;;;;8.48;4.32;;;;;;;;;;5017734;28;20037;-72
2022/08/16 11:06:51;;;;;;;11.43;8.80;;;;;;;;;;5017730;28;20061;-74
2022/08/16 11:09:18;;;;;;;9.18;3.88;;;;;;;;;;5017271;28;20041;-74
2022/08/16 11:11:44;;;;;;;7.47;4.00;;;;;;;;;;5017587;28;20038;-74
2022/08/16 11:14:11;;;;;;;5.00;3.47;;;;;;;;;;5017786;28;20061;-76
2022/08/16 11:16:37;;;;;;;5.85;4.00;;;;;;;;;;5017557;28;20129;-76
2022/08/16 11:19:05;;;;;;;10.43;4.00;;;;;;;;;;5017442;28;20038;-77
2022/08/16 11:21:46;;;;;;;6.05;3.85;;;;;;;;;;5015910;28;20467;-77
2022/08/16 11:24:13;;;;;;;8.23;4.07;;;;;;;;;;5017419;28;20038;-78
2022/08/16 11:26:40;;;;;;;7.97;4.20;;;;;;;;;;4999778;28;20037;-75
2022/08/16 11:29:08;;;;;;;6.75;4.10;;;;;;;;;;5017481;28;20041;-78
2022/08/16 11:31:38;;;;;;;8.93;4.47;;;;;;;;;;5000481;28;20049;-81
2022/08/16 11:34:04;;;;;;;5.93;3.67;;;;;;;;;;5015701;28;20443;-80
2022/08/16 11:36:30;;;;;;;8.02;3.80;;;;;;;;;;5017469;28;20042;-79
2022/08/16 11:38:58;;;;;;;9.18;3.83;;;;;;;;;;5016128;28;20038;-79
2022/08/16 11:41:24;;;;;;;6.38;3.92;;;;;;;;;;5019063;28;20033;-75
2022/08/16 11:43:51;;;;;;;11.15;4.55;;;;;;;;;;5033383;28;20065;-78
2022/08/16 11:46:19;;;;;;;5.93;4.10;;;;;;;;;;5029929;28;20048;-77
2022/08/16 11:48:47;;;;;;;5.97;4.20;;;;;;;;;;5029722;28;20124;-77
2022/08/16 11:51:13;;;;;;;5.60;4.13;;;;;;;;;;5020417;28;20042;-77
2022/08/16 11:53:39;;;;;;;5.32;3.80;;;;;;;;;;5016412;28;20117;-76
2022/08/16 11:56:06;;;;;;;7.28;4.15;;;;;;;;;;5027042;28;20103;-77
2022/08/16 11:58:32;;;;;;;9.88;4.30;;;;;;;;;;5027996;28;20053;-78
2022/08/16 12:00:59;;;;;;;6.72;4.22;;;;;;;;;;5015962;28;20044;-77
2022/08/16 12:03:30;;;;;;;8.43;4.22;;;;;;;;;;5016739;28;20041;-77
2022/08/16 12:05:56;;;;;;;8.25;4.55;;;;;;;;;;5016114;28;20061;-77
2022/08/16 12:08:23;;;;;;;6.30;3.83;;;;;;;;;;5017098;28;20131;-78
2022/08/16 12:10:51;;;;;;;5.60;4.20;;;;;;;;;;5015498;28;20133;-78
2022/08/16 12:13:17;;;;;;;7.65;4.22;;;;;;;;;;5015006;28;20069;-78
2022/08/16 12:15:44;;;;;;;6.35;4.60;;;;;;;;;;5012739;28;20117;-77
2022/08/16 12:18:10;;;;;;;6.10;3.75;;;;;;;;;;5034224;28;20125;-78
2022/08/16 12:20:38;;;;;;;10.40;4.60;;;;;;;;;;5035839;28;20045;-77
2022/08/16 12:23:04;;;;;;;8.70;4.57;;;;;;;;;;5035689;28;20048;-76
2022/08/16 12:25:31;;;;;;;6.80;4.40;;;;;;;;;;5036044;28;20128;-76
2022/08/16 12:27:57;;;;;;;7.32;4.20;;;;;;;;;;5034875;28;20041;-77
2022/08/16 12:30:27;;;;;;;10.77;4.50;;;;;;;;;;5034782;28;20505;-77
2022/08/16 12:32:54;;;;;;;10.40;4.85;;;;;;;;;;5035812;28;20033;-77
2022/08/16 12:35:22;;;;;;;8.27;4.35;;;;;;;;;;5028546;28;20102;-78
2022/08/16 12:37:48;;;;;;;7.57;4.30;;;;;;;;;;5035298;28;20052;-78
2022/08/16 12:40:16;;;;;;;6.35;4.00;;;;;;;;;;5035053;28;20045;-77
2022/08/16 12:42:42;;;;;;;9.38;4.90;;;;;;;;;;5031098;28;20045;-77
2022/08/16 12:45:10;;;;;;;10.35;4.57;;;;;;;;;;5034870;28;20072;-76
2022/08/16 12:50:21;;;;;;;8.65;4.38;;;;;;;;;;5022779;28;20449;-76
2022/08/16 12:52:48;;;;;;;8.38;4.45;;;;;;;;;;5022963;28;20065;-77
2022/08/16 12:55:14;;;;;;;10.07;5.13;;;;;;;;;;5035367;28;20046;-77
2022/08/16 12:57:42;;;;;;;9.25;4.57;;;;;;;;;;5034321;28;20045;-78
2022/08/16 13:00:11;;;;;;;6.65;4.22;;;;;;;;;;5023345;28;20041;-77
2022/08/16 13:02:38;;;;;;;5.32;3.92;;;;;;;;;;5012388;28;20126;-77
2022/08/16 13:05:04;;;;;;;8.00;4.10;;;;;;;;;;5020772;28;20056;-77
2022/08/16 13:07:31;;;;;;;7.90;4.25;;;;;;;;;;5014984;28;20093;-79
2022/08/16 13:10:07;;;;;;;9.75;4.22;;;;;;;;;;5027086;28;20100;-77
2022/08/16 13:12:33;;;;;;;7.10;4.55;;;;;;;;;;5014188;28;20041;-78
2022/08/16 13:15:00;;;;;;;9.13;4.10;;;;;;;;;;5015695;28;20050;-77
2022/08/16 13:17:27;;;;;;;10.55;5.07;;;;;;;;;;5024080;28;20080;-78
2022/08/16 13:19:54;;;;;;;9.60;4.35;;;;;;;;;;5034182;28;20037;-77
2022/08/16 13:22:20;;;;;;;6.15;4.03;;;;;;;;;;5033841;28;20067;-74
2022/08/16 13:24:47;;;;;;;7.68;4.50;;;;;;;;;;5033639;28;20037;-75
2022/08/16 13:27:13;;;;;;;9.07;4.60;;;;;;;;;;5033198;28;20041;-75
2022/08/16 13:29:39;;;;;;;8.80;4.43;;;;;;;;;;5033928;28;20038;-74
2022/08/16 13:32:06;;;;;;;9.65;4.32;;;;;;;;;;5027322;28;20073;-76
2022/08/16 13:34:32;;;;;;;7.97;4.20;;;;;;;;;;5025657;28;20054;-76
2022/08/16 13:36:59;;;;;;;9.55;4.72;;;;;;;;;;5018425;28;20042;-76
2022/08/16 13:39:25;;;;;;;6.43;4.18;;;;;;;;;;5028977;28;20037;-75
2022/08/16 13:41:51;;;;;;;8.32;4.47;;;;;;;;;;5031140;28;20034;-75
2022/08/16 13:44:17;;;;;;;8.23;4.55;;;;;;;;;;5014751;28;20034;-75
2022/08/16 13:46:46;;;;;;;12.00;5.07;;;;;;;;;;5013996;28;20073;-76
2022/08/16 13:49:13;;;;;;;10.38;4.20;;;;;;;;;;5019727;28;20084;-77
2022/08/16 13:51:39;;;;;;;8.60;4.65;;;;;;;;;;5031066;28;20048;-76
2022/08/16 13:54:05;;;;;;;8.07;5.50;;;;;;;;;;5023707;28;20030;-75
2022/08/16 13:56:33;;;;;;;10.02;4.63;;;;;;;;;;5032813;28;20049;-76
2022/08/16 13:58:59;;;;;;;6.95;4.95;;;;;;;;;;5028428;28;20049;-77
2022/08/16 14:01:27;;;;;;;11.73;5.22;;;;;;;;;;5032615;28;20045;-77
2022/08/16 14:03:54;;;;;;;9.60;4.97;;;;;;;;;;5032038;28;20042;-79
2022/08/16 14:06:21;;;;;;;7.40;4.80;;;;;;;;;;5033207;28;20096;-75
2022/08/16 14:08:47;;;;;;;11.30;4.95;;;;;;;;;;5033326;28;20033;-76
2022/08/16 14:11:14;;;;;;;9.73;5.35;;;;;;;;;;5016087;28;20057;-75
2022/08/16 14:13:40;;;;;;;8.32;4.70;;;;;;;;;;5034816;28;20041;-74
2022/08/16 14:16:07;;;;;;;10.73;4.97;;;;;;;;;;5037116;28;20076;-76
2022/08/16 14:18:33;;;;;;;10.00;4.70;;;;;;;;;;5032187;28;20415;-76
2022/08/16 14:20:59;;;;;;;8.93;5.13;;;;;;;;;;5037958;28;20041;-75
2022/08/16 14:23:26;;;;;;;6.47;5.00;;;;;;;;;;5030929;28;20065;-76
2022/08/16 14:25:52;;;;;;;10.90;5.10;;;;;;;;;;5018788;28;20049;-76
2022/08/16 14:28:19;;;;;;;8.00;5.20;;;;;;;;;;5022405;28;20048;-76
2022/08/16 14:30:45;;;;;;;9.13;5.63;;;;;;;;;;5021812;28;20042;-76
2022/08/16 14:33:11;;;;;;;8.57;5.10;;;;;;;;;;5027850;28;20041;-75
2022/08/16 14:35:37;;;;;;;10.60;5.32;;;;;;;;;;5034107;28;20049;-76
2022/08/16 14:38:04;;;;;;;11.23;4.72;;;;;;;;;;5037568;28;20048;-76
2022/08/16 14:40:30;;;;;;;7.43;5.07;;;;;;;;;;5034731;28;20033;-75
2022/08/16 14:42:56;;;;;;;11.55;4.80;;;;;;;;;;5028977;28;20041;-75